sensor_id;sensor_type;location;lat;lon;timestamp;P1;durP1;ratioP1;P2;durP2;ratioP2
4174;SDS011;2101;48.290;14.382;2023-04-25T00:00:07;13.13;;;1.83;;
4174;SDS011;2101;48.290;14.382;2023-04-25T00:02:34;12.50;;;1.70;;
4174;SDS011;2101;48.290;14.382;2023-04-25T00:05:01;13.30;;;2.00;;
4174;SDS011;2101;48.290;14.382;2023-04-25T00:07:30;13.80;;;1.60;;
4174;SDS011;2101;48.290;14.382;2023-04-25T00:09:57;14.00;;;1.60;;
4174;SDS011;2101;48.290;14.382;2023-04-25T00:12:26;12.07;;;1.27;;
4174;SDS011;2101;48.290;14.382;2023-04-25T00:14:54;14.00;;;1.70;;
4174;SDS011;2101;48.290;14.382;2023-04-25T00:17:22;12.00;;;1.33;;
4174;SDS011;2101;48.290;14.382;2023-04-25T00:19:51;17.23;;;1.73;;
4174;SDS011;2101;48.290;14.382;2023-04-25T00:22:18;12.53;;;1.70;;
4174;SDS011;2101;48.290;14.382;2023-04-25T00:24:45;13.30;;;1.50;;
4174;SDS011;2101;48.290;14.382;2023-04-25T00:27:12;12.30;;;1.50;;
4174;SDS011;2101;48.290;14.382;2023-04-25T00:29:39;13.67;;;1.80;;
4174;SDS011;2101;48.290;14.382;2023-04-25T00:32:05;21.23;;;1.70;;
4174;SDS011;2101;48.290;14.382;2023-04-25T00:34:32;13.90;;;2.50;;
4174;SDS011;2101;48.290;14.382;2023-04-25T00:36:59;14.13;;;2.17;;
4174;SDS011;2101;48.290;14.382;2023-04-25T00:39:27;14.57;;;2.20;;
4174;SDS011;2101;48.290;14.382;2023-04-25T00:41:54;15.03;;;2.50;;
4174;SDS011;2101;48.290;14.382;2023-04-25T00:44:20;18.60;;;2.47;;
4174;SDS011;2101;48.290;14.382;2023-04-25T00:46:49;14.90;;;2.20;;
4174;SDS011;2101;48.290;14.382;2023-04-25T00:49:36;14.00;;;2.03;;
4174;SDS011;2101;48.290;14.382;2023-04-25T00:52:02;13.37;;;2.20;;
4174;SDS011;2101;48.290;14.382;2023-04-25T00:54:29;15.80;;;2.33;;
4174;SDS011;2101;48.290;14.382;2023-04-25T00:57:02;13.53;;;2.20;;
4174;SDS011;2101;48.290;14.382;2023-04-25T00:59:40;13.33;;;2.30;;
4174;SDS011;2101;48.290;14.382;2023-04-25T01:02:19;14.47;;;2.20;;
4174;SDS011;2101;48.290;14.382;2023-04-25T01:04:45;18.33;;;3.27;;
4174;SDS011;2101;48.290;14.382;2023-04-25T01:07:12;15.53;;;2.33;;
4174;SDS011;2101;48.290;14.382;2023-04-25T01:09:40;14.13;;;2.77;;
4174;SDS011;2101;48.290;14.382;2023-04-25T01:12:12;14.57;;;1.67;;
4174;SDS011;2101;48.290;14.382;2023-04-25T01:14:42;13.77;;;2.00;;
4174;SDS011;2101;48.290;14.382;2023-04-25T01:17:09;14.63;;;1.80;;
4174;SDS011;2101;48.290;14.382;2023-04-25T01:19:38;13.00;;;1.77;;
4174;SDS011;2101;48.290;14.382;2023-04-25T01:49:11;13.60;;;1.77;;
4174;SDS011;2101;48.290;14.382;2023-04-25T02:04:53;12.93;;;1.60;;
4174;SDS011;2101;48.290;14.382;2023-04-25T02:07:49;15.60;;;2.00;;
4174;SDS011;2101;48.290;14.382;2023-04-25T02:10:16;16.73;;;2.00;;
4174;SDS011;2101;48.290;14.382;2023-04-25T02:12:42;12.20;;;1.57;;
4174;SDS011;2101;48.290;14.382;2023-04-25T02:15:12;13.17;;;1.70;;
4174;SDS011;2101;48.290;14.382;2023-04-25T02:17:40;11.60;;;1.40;;
4174;SDS011;2101;48.290;14.382;2023-04-25T02:20:07;14.93;;;1.60;;
4174;SDS011;2101;48.290;14.382;2023-04-25T02:22:33;17.60;;;1.73;;
4174;SDS011;2101;48.290;14.382;2023-04-25T02:25:04;12.30;;;1.40;;
4174;SDS011;2101;48.290;14.382;2023-04-25T02:51:21;12.17;;;1.77;;
4174;SDS011;2101;48.290;14.382;2023-04-25T02:53:58;11.93;;;1.37;;
4174;SDS011;2101;48.290;14.382;2023-04-25T02:56:27;11.90;;;1.23;;
4174;SDS011;2101;48.290;14.382;2023-04-25T02:58:53;12.70;;;1.77;;
4174;SDS011;2101;48.290;14.382;2023-04-25T03:01:20;13.23;;;1.67;;
4174;SDS011;2101;48.290;14.382;2023-04-25T03:03:47;14.90;;;2.40;;
4174;SDS011;2101;48.290;14.382;2023-04-25T03:06:14;13.27;;;2.07;;
4174;SDS011;2101;48.290;14.382;2023-04-25T03:13:55;13.87;;;2.40;;
4174;SDS011;2101;48.290;14.382;2023-04-25T03:16:26;13.20;;;2.13;;
4174;SDS011;2101;48.290;14.382;2023-04-25T03:18:52;13.13;;;1.97;;
4174;SDS011;2101;48.290;14.382;2023-04-25T03:21:19;11.90;;;1.60;;
4174;SDS011;2101;48.290;14.382;2023-04-25T03:23:46;12.83;;;1.87;;
4174;SDS011;2101;48.290;14.382;2023-04-25T03:26:13;16.40;;;2.17;;
4174;SDS011;2101;48.290;14.382;2023-04-25T03:28:40;14.03;;;1.90;;
4174;SDS011;2101;48.290;14.382;2023-04-25T03:31:07;14.30;;;1.93;;
4174;SDS011;2101;48.290;14.382;2023-04-25T03:33:33;12.33;;;1.77;;
4174;SDS011;2101;48.290;14.382;2023-04-25T03:36:00;12.73;;;1.63;;
4174;SDS011;2101;48.290;14.382;2023-04-25T03:41:02;12.33;;;1.50;;
4174;SDS011;2101;48.290;14.382;2023-04-25T03:43:28;12.47;;;1.63;;
4174;SDS011;2101;48.290;14.382;2023-04-25T03:45:55;14.07;;;1.70;;
4174;SDS011;2101;48.290;14.382;2023-04-25T03:48:21;12.73;;;2.00;;
4174;SDS011;2101;48.290;14.382;2023-04-25T03:50:51;12.70;;;1.60;;
4174;SDS011;2101;48.290;14.382;2023-04-25T03:53:17;12.53;;;1.80;;
4174;SDS011;2101;48.290;14.382;2023-04-25T03:55:45;12.63;;;1.87;;
4174;SDS011;2101;48.290;14.382;2023-04-25T03:58:11;12.40;;;1.77;;
4174;SDS011;2101;48.290;14.382;2023-04-25T04:00:38;12.63;;;1.70;;
4174;SDS011;2101;48.290;14.382;2023-04-25T04:03:04;11.37;;;1.43;;
4174;SDS011;2101;48.290;14.382;2023-04-25T04:05:30;12.87;;;1.70;;
4174;SDS011;2101;48.290;14.382;2023-04-25T04:07:57;13.23;;;2.50;;
4174;SDS011;2101;48.290;14.382;2023-04-25T04:10:23;12.80;;;1.37;;
4174;SDS011;2101;48.290;14.382;2023-04-25T04:12:51;12.47;;;1.43;;
4174;SDS011;2101;48.290;14.382;2023-04-25T04:15:17;20.20;;;1.30;;
4174;SDS011;2101;48.290;14.382;2023-04-25T04:17:43;12.90;;;1.50;;
4174;SDS011;2101;48.290;14.382;2023-04-25T04:20:10;14.27;;;1.87;;
4174;SDS011;2101;48.290;14.382;2023-04-25T04:22:36;15.53;;;1.90;;
4174;SDS011;2101;48.290;14.382;2023-04-25T04:27:38;13.00;;;1.80;;
4174;SDS011;2101;48.290;14.382;2023-04-25T04:30:05;13.90;;;1.63;;
4174;SDS011;2101;48.290;14.382;2023-04-25T04:32:32;11.83;;;1.53;;
4174;SDS011;2101;48.290;14.382;2023-04-25T04:34:59;13.10;;;2.00;;
4174;SDS011;2101;48.290;14.382;2023-04-25T04:37:25;16.90;;;2.23;;
4174;SDS011;2101;48.290;14.382;2023-04-25T04:39:51;13.17;;;1.80;;
4174;SDS011;2101;48.290;14.382;2023-04-25T04:42:18;11.87;;;1.30;;
4174;SDS011;2101;48.290;14.382;2023-04-25T04:44:44;12.40;;;1.73;;
4174;SDS011;2101;48.290;14.382;2023-04-25T04:47:10;17.37;;;1.93;;
4174;SDS011;2101;48.290;14.382;2023-04-25T04:49:37;14.40;;;2.23;;
4174;SDS011;2101;48.290;14.382;2023-04-25T04:52:03;13.30;;;1.90;;
4174;SDS011;2101;48.290;14.382;2023-04-25T04:54:33;14.80;;;2.60;;
4174;SDS011;2101;48.290;14.382;2023-04-25T04:57:01;14.07;;;2.20;;
4174;SDS011;2101;48.290;14.382;2023-04-25T04:59:27;16.40;;;2.50;;
4174;SDS011;2101;48.290;14.382;2023-04-25T05:01:53;13.47;;;2.03;;
4174;SDS011;2101;48.290;14.382;2023-04-25T05:04:19;13.00;;;2.10;;
4174;SDS011;2101;48.290;14.382;2023-04-25T05:06:45;15.77;;;2.60;;
4174;SDS011;2101;48.290;14.382;2023-04-25T05:09:11;19.80;;;2.70;;
4174;SDS011;2101;48.290;14.382;2023-04-25T05:11:37;18.97;;;2.40;;
4174;SDS011;2101;48.290;14.382;2023-04-25T05:14:04;14.40;;;2.40;;
4174;SDS011;2101;48.290;14.382;2023-04-25T05:16:30;15.50;;;2.50;;
4174;SDS011;2101;48.290;14.382;2023-04-25T05:18:56;13.10;;;2.27;;
4174;SDS011;2101;48.290;14.382;2023-04-25T05:21:22;15.40;;;2.73;;
4174;SDS011;2101;48.290;14.382;2023-04-25T05:23:48;13.87;;;2.60;;
4174;SDS011;2101;48.290;14.382;2023-04-25T05:26:14;20.17;;;2.70;;
4174;SDS011;2101;48.290;14.382;2023-04-25T05:28:41;24.93;;;3.30;;
4174;SDS011;2101;48.290;14.382;2023-04-25T05:31:07;17.57;;;3.13;;
4174;SDS011;2101;48.290;14.382;2023-04-25T05:33:35;13.93;;;2.20;;
4174;SDS011;2101;48.290;14.382;2023-04-25T05:36:01;25.33;;;2.63;;
4174;SDS011;2101;48.290;14.382;2023-04-25T05:41:04;23.03;;;3.27;;
4174;SDS011;2101;48.290;14.382;2023-04-25T05:43:30;18.73;;;3.10;;
4174;SDS011;2101;48.290;14.382;2023-04-25T05:45:57;16.83;;;2.40;;
4174;SDS011;2101;48.290;14.382;2023-04-25T05:48:23;18.10;;;2.77;;
4174;SDS011;2101;48.290;14.382;2023-04-25T05:50:49;15.73;;;2.70;;
4174;SDS011;2101;48.290;14.382;2023-04-25T05:53:16;14.50;;;2.17;;
4174;SDS011;2101;48.290;14.382;2023-04-25T05:55:42;18.50;;;2.43;;
4174;SDS011;2101;48.290;14.382;2023-04-25T05:58:08;15.13;;;1.70;;
4174;SDS011;2101;48.290;14.382;2023-04-25T06:00:35;34.07;;;2.37;;
4174;SDS011;2101;48.290;14.382;2023-04-25T06:03:01;16.17;;;2.00;;
4174;SDS011;2101;48.290;14.382;2023-04-25T06:05:28;17.30;;;2.57;;
4174;SDS011;2101;48.290;14.382;2023-04-25T06:07:54;15.37;;;2.30;;
4174;SDS011;2101;48.290;14.382;2023-04-25T06:10:20;33.03;;;3.23;;
4174;SDS011;2101;48.290;14.382;2023-04-25T06:12:47;15.77;;;2.40;;
4174;SDS011;2101;48.290;14.382;2023-04-25T06:15:13;15.70;;;2.47;;
4174;SDS011;2101;48.290;14.382;2023-04-25T06:17:40;14.67;;;2.37;;
4174;SDS011;2101;48.290;14.382;2023-04-25T06:20:07;15.43;;;2.23;;
4174;SDS011;2101;48.290;14.382;2023-04-25T06:22:34;16.30;;;2.03;;
4174;SDS011;2101;48.290;14.382;2023-04-25T06:25:00;15.47;;;2.50;;
4174;SDS011;2101;48.290;14.382;2023-04-25T06:27:27;14.90;;;1.87;;
4174;SDS011;2101;48.290;14.382;2023-04-25T06:29:53;16.03;;;2.17;;
4174;SDS011;2101;48.290;14.382;2023-04-25T06:32:19;13.33;;;2.00;;
4174;SDS011;2101;48.290;14.382;2023-04-25T06:34:46;13.70;;;1.70;;
4174;SDS011;2101;48.290;14.382;2023-04-25T06:37:12;14.10;;;1.70;;
4174;SDS011;2101;48.290;14.382;2023-04-25T06:39:38;14.63;;;1.77;;
4174;SDS011;2101;48.290;14.382;2023-04-25T06:42:04;13.87;;;1.60;;
4174;SDS011;2101;48.290;14.382;2023-04-25T06:44:30;12.90;;;1.30;;
4174;SDS011;2101;48.290;14.382;2023-04-25T06:46:56;13.93;;;1.47;;
4174;SDS011;2101;48.290;14.382;2023-04-25T06:49:22;13.70;;;1.60;;
4174;SDS011;2101;48.290;14.382;2023-04-25T06:51:48;13.37;;;1.27;;
4174;SDS011;2101;48.290;14.382;2023-04-25T06:54:14;12.73;;;1.30;;
4174;SDS011;2101;48.290;14.382;2023-04-25T06:56:40;18.33;;;2.03;;
4174;SDS011;2101;48.290;14.382;2023-04-25T06:59:07;17.83;;;1.50;;
4174;SDS011;2101;48.290;14.382;2023-04-25T07:01:33;14.80;;;1.27;;
4174;SDS011;2101;48.290;14.382;2023-04-25T07:04:00;12.80;;;1.37;;
4174;SDS011;2101;48.290;14.382;2023-04-25T07:06:26;17.37;;;1.80;;
4174;SDS011;2101;48.290;14.382;2023-04-25T07:08:53;14.47;;;1.87;;
4174;SDS011;2101;48.290;14.382;2023-04-25T07:11:19;13.40;;;1.67;;
4174;SDS011;2101;48.290;14.382;2023-04-25T07:13:45;24.17;;;1.70;;
4174;SDS011;2101;48.290;14.382;2023-04-25T07:16:11;13.10;;;1.47;;
4174;SDS011;2101;48.290;14.382;2023-04-25T07:18:38;13.53;;;1.80;;
4174;SDS011;2101;48.290;14.382;2023-04-25T07:21:04;17.40;;;1.90;;
4174;SDS011;2101;48.290;14.382;2023-04-25T07:23:30;14.20;;;1.70;;
4174;SDS011;2101;48.290;14.382;2023-04-25T07:25:56;15.23;;;1.87;;
4174;SDS011;2101;48.290;14.382;2023-04-25T07:28:22;15.03;;;1.53;;
4174;SDS011;2101;48.290;14.382;2023-04-25T07:30:48;13.60;;;1.60;;
4174;SDS011;2101;48.290;14.382;2023-04-25T07:33:14;13.80;;;1.67;;
4174;SDS011;2101;48.290;14.382;2023-04-25T07:35:40;13.80;;;1.70;;
4174;SDS011;2101;48.290;14.382;2023-04-25T07:38:06;15.07;;;1.50;;
4174;SDS011;2101;48.290;14.382;2023-04-25T07:40:33;15.27;;;1.77;;
4174;SDS011;2101;48.290;14.382;2023-04-25T07:43:00;15.27;;;1.63;;
4174;SDS011;2101;48.290;14.382;2023-04-25T07:45:26;14.50;;;2.20;;
4174;SDS011;2101;48.290;14.382;2023-04-25T07:47:53;13.60;;;1.83;;
4174;SDS011;2101;48.290;14.382;2023-04-25T07:50:19;15.50;;;1.80;;
4174;SDS011;2101;48.290;14.382;2023-04-25T07:52:45;14.33;;;2.00;;
4174;SDS011;2101;48.290;14.382;2023-04-25T07:55:11;14.80;;;2.10;;
4174;SDS011;2101;48.290;14.382;2023-04-25T07:57:37;15.40;;;1.47;;
4174;SDS011;2101;48.290;14.382;2023-04-25T08:00:03;13.20;;;1.33;;
4174;SDS011;2101;48.290;14.382;2023-04-25T08:02:33;14.00;;;1.70;;
4174;SDS011;2101;48.290;14.382;2023-04-25T08:05:00;13.20;;;1.63;;
4174;SDS011;2101;48.290;14.382;2023-04-25T08:07:26;15.17;;;2.00;;
4174;SDS011;2101;48.290;14.382;2023-04-25T08:09:52;13.90;;;1.93;;
4174;SDS011;2101;48.290;14.382;2023-04-25T08:12:18;15.27;;;1.90;;
4174;SDS011;2101;48.290;14.382;2023-04-25T08:14:44;14.10;;;1.90;;
4174;SDS011;2101;48.290;14.382;2023-04-25T08:17:10;17.73;;;2.30;;
4174;SDS011;2101;48.290;14.382;2023-04-25T08:19:36;13.70;;;1.80;;
4174;SDS011;2101;48.290;14.382;2023-04-25T08:22:03;16.53;;;2.40;;
4174;SDS011;2101;48.290;14.382;2023-04-25T08:24:29;12.90;;;1.40;;
4174;SDS011;2101;48.290;14.382;2023-04-25T08:26:55;17.77;;;1.43;;
4174;SDS011;2101;48.290;14.382;2023-04-25T08:29:22;15.13;;;2.20;;
4174;SDS011;2101;48.290;14.382;2023-04-25T08:31:49;17.37;;;1.60;;
4174;SDS011;2101;48.290;14.382;2023-04-25T08:34:17;16.20;;;2.00;;
4174;SDS011;2101;48.290;14.382;2023-04-25T08:36:43;13.63;;;1.70;;
4174;SDS011;2101;48.290;14.382;2023-04-25T08:39:09;13.53;;;1.67;;
4174;SDS011;2101;48.290;14.382;2023-04-25T08:41:36;14.47;;;1.43;;
4174;SDS011;2101;48.290;14.382;2023-04-25T08:44:03;15.17;;;2.00;;
4174;SDS011;2101;48.290;14.382;2023-04-25T08:46:29;16.87;;;2.10;;
4174;SDS011;2101;48.290;14.382;2023-04-25T08:48:58;15.37;;;1.80;;
4174;SDS011;2101;48.290;14.382;2023-04-25T08:51:26;14.00;;;1.60;;
4174;SDS011;2101;48.290;14.382;2023-04-25T08:53:53;13.40;;;1.50;;
4174;SDS011;2101;48.290;14.382;2023-04-25T08:56:19;13.13;;;1.47;;
4174;SDS011;2101;48.290;14.382;2023-04-25T08:58:48;13.40;;;1.50;;
4174;SDS011;2101;48.290;14.382;2023-04-25T09:01:18;13.47;;;1.60;;
4174;SDS011;2101;48.290;14.382;2023-04-25T09:03:44;12.97;;;1.20;;
4174;SDS011;2101;48.290;14.382;2023-04-25T09:06:12;14.07;;;1.40;;
4174;SDS011;2101;48.290;14.382;2023-04-25T09:08:38;13.40;;;1.40;;
4174;SDS011;2101;48.290;14.382;2023-04-25T09:11:07;21.70;;;1.60;;
4174;SDS011;2101;48.290;14.382;2023-04-25T09:13:33;13.30;;;1.50;;
4174;SDS011;2101;48.290;14.382;2023-04-25T09:15:59;14.03;;;1.63;;
4174;SDS011;2101;48.290;14.382;2023-04-25T09:18:26;14.40;;;1.40;;
4174;SDS011;2101;48.290;14.382;2023-04-25T09:20:53;13.57;;;1.40;;
4174;SDS011;2101;48.290;14.382;2023-04-25T09:23:19;14.23;;;1.53;;
4174;SDS011;2101;48.290;14.382;2023-04-25T09:25:50;14.83;;;2.23;;
4174;SDS011;2101;48.290;14.382;2023-04-25T09:28:16;13.90;;;1.50;;
4174;SDS011;2101;48.290;14.382;2023-04-25T09:30:48;15.40;;;1.53;;
4174;SDS011;2101;48.290;14.382;2023-04-25T09:33:14;13.37;;;1.67;;
4174;SDS011;2101;48.290;14.382;2023-04-25T09:35:42;17.93;;;1.40;;
4174;SDS011;2101;48.290;14.382;2023-04-25T09:38:12;13.80;;;1.43;;
4174;SDS011;2101;48.290;14.382;2023-04-25T09:40:39;13.07;;;1.40;;
4174;SDS011;2101;48.290;14.382;2023-04-25T09:43:09;16.43;;;2.07;;
4174;SDS011;2101;48.290;14.382;2023-04-25T09:45:40;16.13;;;1.53;;
4174;SDS011;2101;48.290;14.382;2023-04-25T09:48:10;14.40;;;1.43;;
4174;SDS011;2101;48.290;14.382;2023-04-25T09:50:37;13.67;;;1.47;;
4174;SDS011;2101;48.290;14.382;2023-04-25T09:53:03;13.13;;;1.30;;
4174;SDS011;2101;48.290;14.382;2023-04-25T09:55:31;14.67;;;1.57;;
4174;SDS011;2101;48.290;14.382;2023-04-25T09:57:58;13.27;;;1.37;;
4174;SDS011;2101;48.290;14.382;2023-04-25T10:00:30;12.60;;;1.30;;
4174;SDS011;2101;48.290;14.382;2023-04-25T10:02:57;14.00;;;1.70;;
4174;SDS011;2101;48.290;14.382;2023-04-25T10:05:23;16.93;;;1.93;;
4174;SDS011;2101;48.290;14.382;2023-04-25T10:07:49;12.17;;;1.10;;
4174;SDS011;2101;48.290;14.382;2023-04-25T10:10:16;15.47;;;1.20;;
4174;SDS011;2101;48.290;14.382;2023-04-25T10:12:43;13.50;;;1.20;;
4174;SDS011;2101;48.290;14.382;2023-04-25T10:15:10;13.80;;;1.53;;
4174;SDS011;2101;48.290;14.382;2023-04-25T10:17:36;17.23;;;2.37;;
4174;SDS011;2101;48.290;14.382;2023-04-25T10:20:02;13.00;;;1.40;;
4174;SDS011;2101;48.290;14.382;2023-04-25T10:22:34;12.80;;;1.40;;
4174;SDS011;2101;48.290;14.382;2023-04-25T10:25:01;13.77;;;1.80;;
4174;SDS011;2101;48.290;14.382;2023-04-25T10:27:31;12.73;;;1.20;;
4174;SDS011;2101;48.290;14.382;2023-04-25T10:32:30;13.00;;;1.30;;
4174;SDS011;2101;48.290;14.382;2023-04-25T10:34:57;14.93;;;1.53;;
4174;SDS011;2101;48.290;14.382;2023-04-25T10:37:23;13.20;;;1.40;;
4174;SDS011;2101;48.290;14.382;2023-04-25T10:39:51;12.83;;;0.97;;
4174;SDS011;2101;48.290;14.382;2023-04-25T10:42:19;14.53;;;1.50;;
4174;SDS011;2101;48.290;14.382;2023-04-25T10:45:00;12.53;;;1.20;;
4174;SDS011;2101;48.290;14.382;2023-04-25T10:47:43;14.67;;;0.90;;
4174;SDS011;2101;48.290;14.382;2023-04-25T10:50:10;11.57;;;0.80;;
4174;SDS011;2101;48.290;14.382;2023-04-25T10:52:40;13.17;;;0.90;;
4174;SDS011;2101;48.290;14.382;2023-04-25T10:55:09;12.17;;;0.90;;
4174;SDS011;2101;48.290;14.382;2023-04-25T11:00:06;13.23;;;0.93;;
4174;SDS011;2101;48.290;14.382;2023-04-25T11:02:42;11.80;;;0.80;;
4174;SDS011;2101;48.290;14.382;2023-04-25T11:05:10;13.13;;;1.00;;
4174;SDS011;2101;48.290;14.382;2023-04-25T11:07:49;12.23;;;1.00;;
4174;SDS011;2101;48.290;14.382;2023-04-25T11:10:16;13.27;;;1.20;;
4174;SDS011;2101;48.290;14.382;2023-04-25T11:12:43;13.30;;;1.20;;
4174;SDS011;2101;48.290;14.382;2023-04-25T11:15:10;14.87;;;1.10;;
4174;SDS011;2101;48.290;14.382;2023-04-25T11:17:36;12.73;;;1.30;;
4174;SDS011;2101;48.290;14.382;2023-04-25T11:20:05;12.47;;;1.10;;
4174;SDS011;2101;48.290;14.382;2023-04-25T11:22:33;11.83;;;0.90;;
4174;SDS011;2101;48.290;14.382;2023-04-25T11:25:04;16.70;;;1.30;;
4174;SDS011;2101;48.290;14.382;2023-04-25T11:27:30;12.47;;;1.00;;
4174;SDS011;2101;48.290;14.382;2023-04-25T11:30:17;11.93;;;0.90;;
4174;SDS011;2101;48.290;14.382;2023-04-25T11:33:09;17.40;;;0.90;;
4174;SDS011;2101;48.290;14.382;2023-04-25T11:35:35;11.97;;;0.80;;
4174;SDS011;2101;48.290;14.382;2023-04-25T11:38:03;11.33;;;0.60;;
4174;SDS011;2101;48.290;14.382;2023-04-25T11:40:30;12.50;;;0.80;;
4174;SDS011;2101;48.290;14.382;2023-04-25T11:45:55;11.87;;;0.77;;
4174;SDS011;2101;48.290;14.382;2023-04-25T11:48:48;11.70;;;0.83;;
4174;SDS011;2101;48.290;14.382;2023-04-25T11:51:15;11.60;;;0.70;;
4174;SDS011;2101;48.290;14.382;2023-04-25T11:53:42;12.33;;;0.83;;
4174;SDS011;2101;48.290;14.382;2023-04-25T11:56:10;12.00;;;0.80;;
4174;SDS011;2101;48.290;14.382;2023-04-25T12:01:31;11.73;;;0.90;;
4174;SDS011;2101;48.290;14.382;2023-04-25T12:06:38;12.63;;;1.00;;
4174;SDS011;2101;48.290;14.382;2023-04-25T12:09:07;11.70;;;0.70;;
4174;SDS011;2101;48.290;14.382;2023-04-25T12:11:46;11.60;;;0.90;;
4174;SDS011;2101;48.290;14.382;2023-04-25T12:14:29;11.70;;;0.83;;
4174;SDS011;2101;48.290;14.382;2023-04-25T12:17:00;11.40;;;0.70;;
4174;SDS011;2101;48.290;14.382;2023-04-25T12:19:31;11.53;;;0.80;;
4174;SDS011;2101;48.290;14.382;2023-04-25T12:21:59;12.80;;;1.00;;
4174;SDS011;2101;48.290;14.382;2023-04-25T12:24:26;12.00;;;0.80;;
4174;SDS011;2101;48.290;14.382;2023-04-25T12:29:22;18.50;;;1.13;;
4174;SDS011;2101;48.290;14.382;2023-04-25T12:31:49;12.43;;;0.90;;
4174;SDS011;2101;48.290;14.382;2023-04-25T12:34:16;15.50;;;1.13;;
4174;SDS011;2101;48.290;14.382;2023-04-25T12:36:43;13.40;;;1.00;;
4174;SDS011;2101;48.290;14.382;2023-04-25T12:39:23;13.33;;;1.20;;
4174;SDS011;2101;48.290;14.382;2023-04-25T12:41:52;16.10;;;1.00;;
4174;SDS011;2101;48.290;14.382;2023-04-25T12:44:21;14.83;;;1.20;;
4174;SDS011;2101;48.290;14.382;2023-04-25T12:46:48;13.40;;;1.10;;
4174;SDS011;2101;48.290;14.382;2023-04-25T12:49:15;12.90;;;1.17;;
4174;SDS011;2101;48.290;14.382;2023-04-25T12:51:41;11.97;;;0.90;;
4174;SDS011;2101;48.290;14.382;2023-04-25T12:54:07;11.73;;;0.80;;
4174;SDS011;2101;48.290;14.382;2023-04-25T12:56:34;13.53;;;1.00;;
4174;SDS011;2101;48.290;14.382;2023-04-25T12:59:20;11.90;;;0.90;;
4174;SDS011;2101;48.290;14.382;2023-04-25T14:03:15;12.50;;;1.20;;
4174;SDS011;2101;48.290;14.382;2023-04-25T14:06:15;11.70;;;1.00;;
4174;SDS011;2101;48.290;14.382;2023-04-25T14:08:57;12.50;;;1.00;;
4174;SDS011;2101;48.290;14.382;2023-04-25T14:11:27;12.53;;;1.30;;
4174;SDS011;2101;48.290;14.382;2023-04-25T14:14:05;11.90;;;0.97;;
4174;SDS011;2101;48.290;14.382;2023-04-25T14:16:33;11.97;;;1.00;;
4174;SDS011;2101;48.290;14.382;2023-04-25T14:19:05;12.10;;;1.20;;
4174;SDS011;2101;48.290;14.382;2023-04-25T14:22:03;12.20;;;1.23;;
4174;SDS011;2101;48.290;14.382;2023-04-25T14:25:00;15.03;;;1.43;;
4174;SDS011;2101;48.290;14.382;2023-04-25T14:27:27;12.10;;;0.90;;
4174;SDS011;2101;48.290;14.382;2023-04-25T14:30:03;13.47;;;1.27;;
4174;SDS011;2101;48.290;14.382;2023-04-25T14:32:29;13.23;;;1.20;;
4174;SDS011;2101;48.290;14.382;2023-04-25T14:35:02;12.20;;;1.20;;
4174;SDS011;2101;48.290;14.382;2023-04-25T14:37:39;13.30;;;1.27;;
4174;SDS011;2101;48.290;14.382;2023-04-25T14:40:38;11.33;;;0.80;;
4174;SDS011;2101;48.290;14.382;2023-04-25T14:43:09;12.10;;;1.07;;
4174;SDS011;2101;48.290;14.382;2023-04-25T14:45:44;11.43;;;0.90;;
4174;SDS011;2101;48.290;14.382;2023-04-25T14:51:26;11.13;;;0.70;;
4174;SDS011;2101;48.290;14.382;2023-04-25T14:54:02;11.30;;;0.80;;
4174;SDS011;2101;48.290;14.382;2023-04-25T14:57:01;11.40;;;0.87;;
4174;SDS011;2101;48.290;14.382;2023-04-25T14:59:27;11.43;;;0.80;;
4174;SDS011;2101;48.290;14.382;2023-04-25T15:01:54;12.17;;;0.90;;
4174;SDS011;2101;48.290;14.382;2023-04-25T15:04:23;11.37;;;0.80;;
4174;SDS011;2101;48.290;14.382;2023-04-25T15:06:52;12.70;;;1.10;;
4174;SDS011;2101;48.290;14.382;2023-04-25T15:09:21;12.27;;;1.10;;
4174;SDS011;2101;48.290;14.382;2023-04-25T15:11:49;12.17;;;1.00;;
4174;SDS011;2101;48.290;14.382;2023-04-25T15:14:16;11.90;;;0.90;;
4174;SDS011;2101;48.290;14.382;2023-04-25T15:16:42;11.20;;;0.73;;
4174;SDS011;2101;48.290;14.382;2023-04-25T15:19:09;16.03;;;1.50;;
4174;SDS011;2101;48.290;14.382;2023-04-25T15:21:36;13.13;;;1.23;;
4174;SDS011;2101;48.290;14.382;2023-04-25T15:24:05;12.63;;;1.03;;
4174;SDS011;2101;48.290;14.382;2023-04-25T15:26:33;11.83;;;1.00;;
4174;SDS011;2101;48.290;14.382;2023-04-25T15:28:59;11.83;;;1.03;;
4174;SDS011;2101;48.290;14.382;2023-04-25T15:31:26;11.70;;;0.90;;
4174;SDS011;2101;48.290;14.382;2023-04-25T15:34:02;11.70;;;0.90;;
4174;SDS011;2101;48.290;14.382;2023-04-25T15:36:28;11.97;;;0.97;;
4174;SDS011;2101;48.290;14.382;2023-04-25T15:38:54;12.10;;;1.10;;
4174;SDS011;2101;48.290;14.382;2023-04-25T15:41:28;12.93;;;1.37;;
4174;SDS011;2101;48.290;14.382;2023-04-25T15:43:55;14.23;;;1.43;;
4174;SDS011;2101;48.290;14.382;2023-04-25T15:46:21;20.03;;;1.33;;
4174;SDS011;2101;48.290;14.382;2023-04-25T15:48:47;12.70;;;1.33;;
4174;SDS011;2101;48.290;14.382;2023-04-25T15:51:14;11.47;;;0.90;;
4174;SDS011;2101;48.290;14.382;2023-04-25T15:53:41;12.20;;;1.03;;
4174;SDS011;2101;48.290;14.382;2023-04-25T15:56:11;11.93;;;1.20;;
4174;SDS011;2101;48.290;14.382;2023-04-25T15:58:44;12.13;;;1.10;;
4174;SDS011;2101;48.290;14.382;2023-04-25T16:01:13;11.77;;;1.03;;
4174;SDS011;2101;48.290;14.382;2023-04-25T16:03:39;12.33;;;1.27;;
4174;SDS011;2101;48.290;14.382;2023-04-25T16:06:06;11.60;;;0.90;;
4174;SDS011;2101;48.290;14.382;2023-04-25T16:08:32;11.07;;;0.60;;
4174;SDS011;2101;48.290;14.382;2023-04-25T16:11:18;11.67;;;0.80;;
4174;SDS011;2101;48.290;14.382;2023-04-25T18:19:30;11.30;;;0.93;;
4174;SDS011;2101;48.290;14.382;2023-04-25T19:14:13;12.90;;;1.90;;
4174;SDS011;2101;48.290;14.382;2023-04-25T19:16:41;11.90;;;1.53;;
4174;SDS011;2101;48.290;14.382;2023-04-25T19:19:12;12.53;;;1.90;;
4174;SDS011;2101;48.290;14.382;2023-04-25T19:21:43;14.07;;;2.43;;
4174;SDS011;2101;48.290;14.382;2023-04-25T19:24:12;15.27;;;2.60;;
4174;SDS011;2101;48.290;14.382;2023-04-25T19:26:39;18.57;;;2.60;;
4174;SDS011;2101;48.290;14.382;2023-04-25T19:29:07;18.33;;;2.37;;
4174;SDS011;2101;48.290;14.382;2023-04-25T19:31:34;14.03;;;2.40;;
4174;SDS011;2101;48.290;14.382;2023-04-25T19:34:01;13.40;;;2.37;;
4174;SDS011;2101;48.290;14.382;2023-04-25T19:36:30;15.10;;;2.73;;
4174;SDS011;2101;48.290;14.382;2023-04-25T19:38:58;14.17;;;2.40;;
4174;SDS011;2101;48.290;14.382;2023-04-25T19:41:29;12.20;;;1.67;;
4174;SDS011;2101;48.290;14.382;2023-04-25T19:43:55;13.10;;;2.10;;
4174;SDS011;2101;48.290;14.382;2023-04-25T19:46:21;12.27;;;2.00;;
4174;SDS011;2101;48.290;14.382;2023-04-25T19:48:49;12.50;;;1.83;;
4174;SDS011;2101;48.290;14.382;2023-04-25T19:51:16;12.20;;;1.60;;
4174;SDS011;2101;48.290;14.382;2023-04-25T19:53:44;12.90;;;2.10;;
4174;SDS011;2101;48.290;14.382;2023-04-25T19:56:10;14.43;;;2.30;;
4174;SDS011;2101;48.290;14.382;2023-04-25T19:58:36;14.83;;;2.67;;
4174;SDS011;2101;48.290;14.382;2023-04-25T20:01:02;13.60;;;2.53;;
4174;SDS011;2101;48.290;14.382;2023-04-25T20:03:30;25.83;;;2.63;;
4174;SDS011;2101;48.290;14.382;2023-04-25T20:06:01;12.50;;;1.90;;
4174;SDS011;2101;48.290;14.382;2023-04-25T20:08:28;12.63;;;2.00;;
4174;SDS011;2101;48.290;14.382;2023-04-25T20:31:55;12.20;;;1.63;;
4174;SDS011;2101;48.290;14.382;2023-04-25T20:37:19;13.83;;;2.20;;
4174;SDS011;2101;48.290;14.382;2023-04-25T20:39:52;15.40;;;1.70;;
4174;SDS011;2101;48.290;14.382;2023-04-25T20:44:56;13.00;;;1.90;;
4174;SDS011;2101;48.290;14.382;2023-04-25T20:47:33;12.30;;;1.60;;
4174;SDS011;2101;48.290;14.382;2023-04-25T20:50:03;14.80;;;1.63;;
4174;SDS011;2101;48.290;14.382;2023-04-25T20:52:46;14.30;;;1.80;;
4174;SDS011;2101;48.290;14.382;2023-04-25T20:55:15;12.20;;;2.03;;
4174;SDS011;2101;48.290;14.382;2023-04-25T21:00:18;14.67;;;2.30;;